createdAt,value
2023-03-14T00:01:00.378Z,3.00
2023-03-14T00:03:29.377Z,3.05
2023-03-14T00:05:55.905Z,2.30
2023-03-14T00:08:22.529Z,2.50
2023-03-14T00:10:49.021Z,2.20
2023-03-14T00:13:15.602Z,3.08
2023-03-14T00:15:42.353Z,3.00
2023-03-14T00:18:08.901Z,3.05
2023-03-14T00:20:35.574Z,2.50
2023-03-14T00:23:03.477Z,2.42
2023-03-14T00:25:29.964Z,2.83
2023-03-14T00:27:56.468Z,2.40
2023-03-14T00:30:23.019Z,3.13
2023-03-14T00:32:49.647Z,2.33
2023-03-14T00:35:16.423Z,2.50
2023-03-14T00:37:43.071Z,2.33
2023-03-14T00:40:10.363Z,2.70
2023-03-14T00:42:36.962Z,2.17
2023-03-14T00:45:04.843Z,2.30
2023-03-14T00:47:31.375Z,2.00
2023-03-14T00:49:58.180Z,2.28
2023-03-14T00:52:24.808Z,1.67
2023-03-14T00:54:51.356Z,1.65
2023-03-14T00:57:17.913Z,1.63
2023-03-14T00:59:44.423Z,1.70
2023-03-14T01:02:11.195Z,1.50
2023-03-14T01:04:38.765Z,1.75
2023-03-14T01:07:05.297Z,1.35
2023-03-14T01:09:31.875Z,1.40
2023-03-14T01:11:58.700Z,1.10
2023-03-14T01:14:25.241Z,1.55
2023-03-14T01:16:51.811Z,1.38
2023-03-14T01:19:18.337Z,1.23
2023-03-14T01:21:44.952Z,1.30
2023-03-14T01:24:12.507Z,1.35
2023-03-14T01:26:39.019Z,1.00
2023-03-14T01:29:05.643Z,1.45
2023-03-14T01:31:32.417Z,1.30
2023-03-14T01:33:59.124Z,1.23
2023-03-14T01:36:25.660Z,1.00
2023-03-14T01:38:52.319Z,1.00
2023-03-14T01:41:25.193Z,1.02
2023-03-14T01:43:52.269Z,1.00
2023-03-14T01:46:23.293Z,0.77
2023-03-14T01:49:11.871Z,0.98
2023-03-14T01:52:02.286Z,1.10
2023-03-14T01:54:35.357Z,0.82
2023-03-14T01:57:15.765Z,1.25
2023-03-14T01:59:47.184Z,1.33
2023-03-14T02:02:15.443Z,1.33
2023-03-14T02:04:42.679Z,1.88
2023-03-14T02:07:32.349Z,1.30
2023-03-14T02:10:01.292Z,2.00
2023-03-14T02:12:28.209Z,2.03
2023-03-14T02:14:54.749Z,1.60
2023-03-14T02:17:23.442Z,2.10
2023-03-14T02:20:24.236Z,1.80
2023-03-14T02:22:51.082Z,1.83
2023-03-14T02:25:36.213Z,1.40
2023-03-14T02:28:03.000Z,1.80
2023-03-14T02:30:32.086Z,2.20
2023-03-14T02:33:00.825Z,1.80
2023-03-14T02:35:33.189Z,2.00
2023-03-14T02:38:30.574Z,2.00
2023-03-14T02:40:57.084Z,2.00
2023-03-14T02:43:23.968Z,2.40
2023-03-14T02:45:52.042Z,1.90
2023-03-14T02:48:26.186Z,2.90
2023-03-14T02:50:56.611Z,2.13
2023-03-14T02:53:27.578Z,2.75
2023-03-14T02:55:54.183Z,2.63
2023-03-14T02:58:21.695Z,2.55
2023-03-14T03:00:48.697Z,2.58
2023-03-14T03:03:15.657Z,3.00
2023-03-14T03:05:43.558Z,3.55
2023-03-14T03:08:10.850Z,3.67
2023-03-14T03:10:37.430Z,2.75
2023-03-14T03:13:03.948Z,3.08
2023-03-14T03:15:30.643Z,3.30
2023-03-14T03:17:57.213Z,3.20
2023-03-14T03:20:23.727Z,3.47
2023-03-14T03:22:50.928Z,3.30
2023-03-14T03:25:17.637Z,3.13
2023-03-14T03:27:44.206Z,3.37
2023-03-14T03:30:11.402Z,3.55
2023-03-14T03:32:38.004Z,3.78
2023-03-14T03:35:05.608Z,3.42
2023-03-14T03:37:33.277Z,3.90
2023-03-14T03:40:00.100Z,3.67
2023-03-14T03:42:27.976Z,3.42
2023-03-14T03:44:54.608Z,3.10
2023-03-14T03:47:21.173Z,3.55
2023-03-14T03:49:47.679Z,3.22
2023-03-14T03:52:14.258Z,4.10
2023-03-14T03:54:40.856Z,3.85
2023-03-14T03:57:07.441Z,2.90
2023-03-14T03:59:33.966Z,2.97
2023-03-14T04:02:00.627Z,3.55
2023-03-14T04:04:27.295Z,3.00
2023-03-14T04:06:53.948Z,3.40
2023-03-14T04:09:20.444Z,3.50
2023-03-14T04:11:46.976Z,3.60
2023-03-14T04:14:13.468Z,3.00
2023-03-14T04:16:40.018Z,3.80
2023-03-14T04:19:06.554Z,3.65
2023-03-14T04:21:33.071Z,3.88
2023-03-14T04:23:59.778Z,3.72
2023-03-14T04:26:26.378Z,4.15
2023-03-14T04:28:52.953Z,3.20
2023-03-14T04:31:21.667Z,3.67
2023-03-14T04:33:48.576Z,3.90
2023-03-14T04:36:15.514Z,4.00
2023-03-14T04:38:42.322Z,3.80
2023-03-14T04:41:08.875Z,3.87
2023-03-14T04:43:35.527Z,3.83
2023-03-14T04:46:02.048Z,3.67
2023-03-14T04:48:29.222Z,3.22
2023-03-14T04:50:56.095Z,3.70
2023-03-14T04:53:22.875Z,3.20
2023-03-14T04:55:54.091Z,3.58
2023-03-14T04:58:21.810Z,4.28
2023-03-14T05:00:48.925Z,4.45
2023-03-14T05:03:16.860Z,4.28
2023-03-14T05:05:43.736Z,4.93
2023-03-14T05:08:10.581Z,4.30
2023-03-14T05:10:37.267Z,3.95
2023-03-14T05:13:04.479Z,4.60
2023-03-14T05:15:31.259Z,4.18
2023-03-14T05:17:58.001Z,4.17
2023-03-14T05:20:24.528Z,3.80
2023-03-14T05:22:51.060Z,4.03
2023-03-14T05:25:17.593Z,3.25
2023-03-14T05:27:44.118Z,3.78
2023-03-14T05:30:11.462Z,3.73
2023-03-14T05:32:38.043Z,3.88
2023-03-14T05:35:04.917Z,4.18
2023-03-14T05:37:31.436Z,3.20
2023-03-14T05:39:57.971Z,3.20
2023-03-14T05:42:24.544Z,3.60
2023-03-14T05:44:51.060Z,3.80
2023-03-14T05:47:17.647Z,3.55
2023-03-14T05:49:44.240Z,3.42
2023-03-14T05:52:10.864Z,3.58
2023-03-14T05:54:37.388Z,3.57
2023-03-14T05:57:03.987Z,4.00
2023-03-14T05:59:30.506Z,4.18
2023-03-14T06:01:57.145Z,3.78
2023-03-14T06:04:23.812Z,3.58
2023-03-14T06:06:50.406Z,4.20
2023-03-14T06:09:17.114Z,4.47
2023-03-14T06:11:43.803Z,4.60
2023-03-14T06:14:10.502Z,4.40
2023-03-14T06:16:37.062Z,4.57
2023-03-14T06:19:03.672Z,3.80
2023-03-14T06:21:30.758Z,3.72
2023-03-14T06:23:57.360Z,3.58
2023-03-14T06:26:24.502Z,3.42
2023-03-14T06:28:52.020Z,3.95
2023-03-14T06:31:21.577Z,4.03
2023-03-14T06:33:48.280Z,3.58
2023-03-14T06:36:14.858Z,4.88
2023-03-14T06:38:41.422Z,4.65
2023-03-14T06:41:08.588Z,4.57
2023-03-14T06:43:35.218Z,3.57
2023-03-14T06:46:01.942Z,3.90
2023-03-14T06:48:28.591Z,3.75
2023-03-14T06:50:55.868Z,3.13
2023-03-14T06:53:22.577Z,3.63
2023-03-14T06:55:49.330Z,3.73
2023-03-14T06:58:15.977Z,4.07
2023-03-14T07:00:42.898Z,3.25
2023-03-14T07:03:13.288Z,3.58
2023-03-14T07:05:41.535Z,3.42
2023-03-14T07:08:09.280Z,3.10
2023-03-14T07:10:35.874Z,3.55
2023-03-14T07:13:02.683Z,4.00
2023-03-14T07:15:29.398Z,3.13
2023-03-14T07:17:56.061Z,2.78
2023-03-14T07:20:23.131Z,3.03
2023-03-14T07:22:51.163Z,3.30
2023-03-14T07:25:18.410Z,3.03
2023-03-14T07:27:46.269Z,3.25
2023-03-14T07:30:13.514Z,3.28
2023-03-14T07:32:40.329Z,2.80
2023-03-14T07:35:07.744Z,2.80
2023-03-14T07:37:34.327Z,3.17
2023-03-14T07:40:00.868Z,2.42
2023-03-14T07:42:27.467Z,2.63
2023-03-14T07:44:54.065Z,2.63
2023-03-14T07:47:20.797Z,2.80
2023-03-14T07:49:47.385Z,2.83
2023-03-14T07:52:14.209Z,3.00
2023-03-14T07:54:40.866Z,3.38
2023-03-14T07:57:07.614Z,3.40
2023-03-14T07:59:34.246Z,3.63
2023-03-14T08:02:00.952Z,3.10
2023-03-14T08:04:28.420Z,3.35
2023-03-14T08:06:55.492Z,3.55
2023-03-14T08:09:22.222Z,3.50
2023-03-14T08:11:48.757Z,3.42
2023-03-14T08:14:15.377Z,4.00
2023-03-14T08:16:41.951Z,4.13
2023-03-14T08:19:08.478Z,3.85
2023-03-14T08:21:35.124Z,4.50
2023-03-14T08:24:01.800Z,3.20
2023-03-14T08:26:28.509Z,3.95
2023-03-14T08:28:55.110Z,3.35
2023-03-14T08:31:22.013Z,3.40
2023-03-14T08:33:48.726Z,3.00
2023-03-14T08:36:15.441Z,2.63
2023-03-14T08:38:43.581Z,2.70
2023-03-14T08:41:10.742Z,2.30
2023-03-14T08:43:37.336Z,2.17
2023-03-14T08:46:04.547Z,1.90
2023-03-14T08:48:31.669Z,1.98
2023-03-14T08:51:09.609Z,1.63
2023-03-14T08:53:36.217Z,1.95
2023-03-14T08:56:02.941Z,1.90
2023-03-14T08:58:30.408Z,2.07
2023-03-14T09:00:57.578Z,1.63
2023-03-14T09:03:24.754Z,2.20
2023-03-14T09:05:52.586Z,1.80
2023-03-14T09:08:19.231Z,2.00
2023-03-14T09:10:45.863Z,2.50
2023-03-14T09:13:12.481Z,2.95
2023-03-14T09:15:39.844Z,2.80
2023-03-14T09:18:06.496Z,2.50
2023-03-14T09:20:33.147Z,2.55
2023-03-14T09:22:59.689Z,2.60
2023-03-14T09:25:26.272Z,2.45
2023-03-14T09:27:52.804Z,2.60
2023-03-14T09:30:19.454Z,2.88
2023-03-14T09:32:46.378Z,3.03
2023-03-14T09:35:12.988Z,2.60
2023-03-14T09:37:39.875Z,2.88
2023-03-14T09:40:11.720Z,2.90
2023-03-14T09:42:40.383Z,3.40
2023-03-14T09:45:13.804Z,3.08
2023-03-14T09:47:52.605Z,2.67
2023-03-14T09:50:26.733Z,2.33
2023-03-14T09:53:03.094Z,2.22
2023-03-14T09:55:29.752Z,2.28
2023-03-14T09:58:01.292Z,2.95
2023-03-14T10:00:31.626Z,3.67
2023-03-14T10:03:15.120Z,2.97
2023-03-14T10:05:42.868Z,3.72
2023-03-14T10:08:13.622Z,2.75
2023-03-14T10:10:40.722Z,2.80
2023-03-14T10:13:27.122Z,2.00
2023-03-14T10:16:02.544Z,2.80
2023-03-14T10:18:32.778Z,2.80
2023-03-14T10:21:08.715Z,2.55
2023-03-14T10:23:36.823Z,2.40
2023-03-14T10:26:10.046Z,2.63
2023-03-14T10:28:48.455Z,2.50
2023-03-14T10:31:16.235Z,2.58
2023-03-14T10:33:43.503Z,2.25
2023-03-14T10:36:24.069Z,2.40
2023-03-14T10:38:50.959Z,2.07
2023-03-14T10:41:24.801Z,2.83
2023-03-14T10:43:54.583Z,2.90
2023-03-14T10:46:21.672Z,2.90
2023-03-14T10:48:50.665Z,2.47
2023-03-14T10:51:25.225Z,1.67
2023-03-14T10:54:13.610Z,2.10
2023-03-14T10:56:40.261Z,2.30
2023-03-14T10:59:16.523Z,2.38
2023-03-14T11:01:53.133Z,2.30
2023-03-14T11:04:28.606Z,2.60
2023-03-14T11:06:55.095Z,2.90
2023-03-14T11:09:34.075Z,2.15
2023-03-14T11:12:38.165Z,2.40
2023-03-14T11:15:33.769Z,2.63
2023-03-14T11:18:34.197Z,2.60
2023-03-14T11:21:22.594Z,2.85
2023-03-14T11:24:04.106Z,2.65
2023-03-14T11:26:52.631Z,2.33
2023-03-14T11:29:38.001Z,2.20
2023-03-14T11:32:14.330Z,2.00
2023-03-14T11:34:52.625Z,2.08
2023-03-14T11:37:37.501Z,2.20
2023-03-14T11:40:15.796Z,2.63
2023-03-14T11:42:45.333Z,2.45
2023-03-14T11:45:20.034Z,2.70
2023-03-14T11:47:54.004Z,2.53
2023-03-14T11:50:25.469Z,2.72
2023-03-14T11:52:59.321Z,3.00
2023-03-14T11:55:28.919Z,3.28
2023-03-14T11:58:02.823Z,3.87
2023-03-14T12:00:30.619Z,3.17
2023-03-14T12:03:11.954Z,3.95
2023-03-14T12:06:20.913Z,2.97
2023-03-14T12:09:01.362Z,3.50
2023-03-14T12:11:43.436Z,3.33
2023-03-14T12:14:28.161Z,3.78
2023-03-14T12:17:03.704Z,3.88
2023-03-14T12:19:32.691Z,2.60
2023-03-14T12:22:09.715Z,3.33
2023-03-14T12:24:38.602Z,2.60
2023-03-14T12:27:09.881Z,2.20
2023-03-14T12:30:03.290Z,2.08
2023-03-14T12:32:33.247Z,1.90
2023-03-14T12:35:28.193Z,1.65
2023-03-14T12:37:58.154Z,1.27
2023-03-14T12:40:34.149Z,1.55
2023-03-14T12:43:04.288Z,1.73
2023-03-14T12:45:32.954Z,1.30
2023-03-14T12:48:03.414Z,1.73
2023-03-14T12:50:35.355Z,1.20
2023-03-14T12:53:46.076Z,1.30
2023-03-14T12:56:18.742Z,0.80
2023-03-14T12:58:49.603Z,1.10
2023-03-14T13:01:20.056Z,1.23
2023-03-14T13:03:52.068Z,0.70
2023-03-14T13:06:46.587Z,1.67
2023-03-14T13:09:56.670Z,1.70
2023-03-14T13:12:37.649Z,0.98
2023-03-14T13:15:14.353Z,1.13
2023-03-14T13:17:42.318Z,1.07
2023-03-14T13:20:24.023Z,1.27
2023-03-14T13:22:50.968Z,1.52
2023-03-14T13:25:19.368Z,1.60
2023-03-14T13:27:46.069Z,1.58
2023-03-14T13:30:28.060Z,3.13
2023-03-14T13:32:56.143Z,2.83
2023-03-14T13:35:29.048Z,2.22
2023-03-14T13:38:11.200Z,1.55
2023-03-14T13:40:39.090Z,2.55
2023-03-14T13:43:32.043Z,1.43
2023-03-14T13:46:08.060Z,2.42
2023-03-14T13:48:43.225Z,2.08
2023-03-14T13:51:14.295Z,2.13
2023-03-14T13:53:47.904Z,2.30
2023-03-14T13:56:14.828Z,1.60
2023-03-14T13:58:42.164Z,2.25
2023-03-14T14:01:19.726Z,1.70
2023-03-14T14:03:52.110Z,2.00
2023-03-14T14:06:31.357Z,2.08
2023-03-14T14:09:01.969Z,1.90
2023-03-14T14:11:59.242Z,2.40
2023-03-14T14:14:54.763Z,2.30
2023-03-14T14:17:27.246Z,2.28
2023-03-14T14:19:54.981Z,2.72
2023-03-14T14:22:21.756Z,2.07
2023-03-14T14:24:48.963Z,2.60
2023-03-14T14:27:27.324Z,2.10
2023-03-14T14:30:18.589Z,2.40
2023-03-14T14:32:47.618Z,2.08
2023-03-14T14:35:35.174Z,1.87
2023-03-14T14:38:02.715Z,1.70
2023-03-14T14:40:31.012Z,1.45
2023-03-14T14:43:05.720Z,1.75
2023-03-14T14:45:36.044Z,1.80
2023-03-14T14:48:02.609Z,1.93
2023-03-14T14:50:32.217Z,1.88
2023-03-14T14:53:00.690Z,2.08
2023-03-14T14:55:35.829Z,1.75
2023-03-14T14:58:22.517Z,2.20
2023-03-14T15:01:06.141Z,2.80
2023-03-14T15:03:34.688Z,2.25
2023-03-14T15:06:02.862Z,2.60
2023-03-14T15:08:29.489Z,2.88
2023-03-14T15:10:57.734Z,2.47
2023-03-14T15:13:24.569Z,2.70
2023-03-14T15:15:58.543Z,2.95
2023-03-14T15:18:31.401Z,2.72
2023-03-14T15:20:58.193Z,2.20
2023-03-14T15:23:25.224Z,2.53
2023-03-14T15:25:55.846Z,2.40
2023-03-14T15:28:28.580Z,2.40
2023-03-14T15:30:59.859Z,2.67
2023-03-14T15:33:27.354Z,2.10
2023-03-14T15:35:54.932Z,2.55
2023-03-14T15:38:23.899Z,3.73
2023-03-14T15:40:51.973Z,3.40
2023-03-14T15:43:19.806Z,3.17
2023-03-14T15:45:46.793Z,3.10
2023-03-14T15:48:16.998Z,2.83
2023-03-14T15:50:44.537Z,2.30
2023-03-14T15:53:12.079Z,2.90
2023-03-14T15:55:38.822Z,2.20
2023-03-14T15:58:05.640Z,1.92
2023-03-14T16:00:33.153Z,1.85
2023-03-14T16:02:59.709Z,1.73
2023-03-14T16:05:26.390Z,1.90
2023-03-14T16:07:53.097Z,2.30
2023-03-14T16:10:19.753Z,2.25
2023-03-14T16:12:46.661Z,1.63
2023-03-14T16:15:13.212Z,2.33
2023-03-14T16:17:41.131Z,1.90
2023-03-14T16:20:08.803Z,2.40
2023-03-14T16:22:35.830Z,1.85
2023-03-14T16:25:07.489Z,2.00
2023-03-14T16:27:34.064Z,2.23
2023-03-14T16:30:00.750Z,1.90
2023-03-14T16:32:27.754Z,2.33
2023-03-14T16:34:54.519Z,3.25
2023-03-14T16:37:23.182Z,3.30
2023-03-14T16:40:11.252Z,3.03
2023-03-14T16:42:40.837Z,2.90
2023-03-14T16:45:13.526Z,2.97
2023-03-14T16:47:40.089Z,2.55
2023-03-14T16:50:07.029Z,2.88
2023-03-14T16:52:33.570Z,2.73
2023-03-14T16:55:00.254Z,2.75
2023-03-14T16:57:26.830Z,2.55
2023-03-14T16:59:53.413Z,3.67
2023-03-14T17:02:20.164Z,3.67
2023-03-14T17:04:46.750Z,2.70
2023-03-14T17:07:13.406Z,2.70
2023-03-14T17:09:39.946Z,2.92
2023-03-14T17:12:07.118Z,3.30
2023-03-14T17:14:33.678Z,3.83
2023-03-14T17:17:01.712Z,3.33
2023-03-14T17:19:28.559Z,3.33
2023-03-14T17:22:09.283Z,3.20
2023-03-14T17:24:40.504Z,2.70
2023-03-14T17:27:07.062Z,2.72
2023-03-14T17:29:33.771Z,2.77
2023-03-14T17:32:00.300Z,2.17
2023-03-14T17:34:26.873Z,3.03
2023-03-14T17:36:53.418Z,3.10
2023-03-14T17:39:19.970Z,2.25
2023-03-14T17:41:48.019Z,2.43
2023-03-14T17:44:14.591Z,2.85
2023-03-14T17:46:41.371Z,3.83
2023-03-14T17:49:08.007Z,3.67
2023-03-14T17:51:34.578Z,3.72
2023-03-14T17:54:01.145Z,3.40
2023-03-14T17:56:27.705Z,3.33
2023-03-14T17:58:57.105Z,4.57
2023-03-14T18:01:24.246Z,3.20
2023-03-14T18:03:56.262Z,2.70
2023-03-14T18:06:23.592Z,2.43
2023-03-14T18:08:51.448Z,2.50
2023-03-14T18:11:18.436Z,3.42
2023-03-14T18:13:45.803Z,2.88
2023-03-14T18:16:16.119Z,2.95
2023-03-14T18:18:47.057Z,2.93
2023-03-14T18:21:16.457Z,3.28
2023-03-14T18:23:43.222Z,2.80
2023-03-14T18:26:10.904Z,2.95
2023-03-14T18:28:37.953Z,3.65
2023-03-14T18:31:11.764Z,3.43
2023-03-14T18:33:40.403Z,2.50
2023-03-14T18:36:12.215Z,3.10
2023-03-14T18:38:43.612Z,2.70
2023-03-14T18:41:12.836Z,2.47
2023-03-14T18:43:39.887Z,3.43
2023-03-14T18:46:06.507Z,3.08
2023-03-14T18:48:33.620Z,3.20
2023-03-14T18:51:01.005Z,2.90
2023-03-14T18:53:32.433Z,3.22
2023-03-14T18:56:02.782Z,3.30
2023-03-14T18:58:29.624Z,4.53
2023-03-14T19:01:01.613Z,4.03
2023-03-14T19:03:30.065Z,4.35
2023-03-14T19:06:00.719Z,4.60
2023-03-14T19:08:29.647Z,4.43
2023-03-14T19:11:01.029Z,4.75
2023-03-14T19:13:27.920Z,5.40
2023-03-14T19:15:54.803Z,4.75
2023-03-14T19:18:21.493Z,4.90
2023-03-14T19:21:03.633Z,4.57
2023-03-14T19:23:31.882Z,3.40
2023-03-14T19:25:58.661Z,5.70
2023-03-14T19:28:25.972Z,5.22
2023-03-14T19:30:52.773Z,5.03
2023-03-14T19:33:19.854Z,4.53
2023-03-14T19:35:47.294Z,4.40
2023-03-14T19:38:14.519Z,3.20
2023-03-14T19:40:43.032Z,1.83
2023-03-14T19:43:11.059Z,2.58
2023-03-14T19:45:37.799Z,2.13
2023-03-14T19:48:06.791Z,1.48
2023-03-14T19:50:35.562Z,1.63
2023-03-14T19:53:04.283Z,1.30
2023-03-14T19:55:35.470Z,1.00
2023-03-14T19:58:03.792Z,1.33
2023-03-14T20:00:30.417Z,1.25
2023-03-14T20:02:57.283Z,1.48
2023-03-14T20:05:25.135Z,1.98
2023-03-14T20:07:51.849Z,1.90
2023-03-14T20:10:22.841Z,1.50
2023-03-14T20:12:51.124Z,1.60
2023-03-14T20:15:19.609Z,1.40
2023-03-14T20:17:49.828Z,1.40
2023-03-14T20:20:16.831Z,1.20
2023-03-14T20:22:43.983Z,1.37
2023-03-14T20:25:13.685Z,1.38
2023-03-14T20:27:41.425Z,1.25
2023-03-14T20:30:12.781Z,1.40
2023-03-14T20:32:41.015Z,1.95
2023-03-14T20:35:11.511Z,2.00
2023-03-14T20:37:39.294Z,1.30
2023-03-14T20:40:15.804Z,1.83
2023-03-14T20:42:42.493Z,1.60
2023-03-14T20:45:09.448Z,1.83
2023-03-14T20:47:36.012Z,2.40
2023-03-14T20:50:03.691Z,1.58
2023-03-14T20:52:30.760Z,2.00
2023-03-14T20:54:59.544Z,2.05
2023-03-14T20:57:26.909Z,1.65
2023-03-14T20:59:53.453Z,1.43
2023-03-14T21:02:20.175Z,1.60
2023-03-14T21:04:47.270Z,1.83
2023-03-14T21:07:14.194Z,1.75
2023-03-14T21:09:41.677Z,2.08
2023-03-14T21:12:08.326Z,1.60
2023-03-14T21:14:35.106Z,1.67
2023-03-14T21:17:01.677Z,1.50
2023-03-14T21:19:33.015Z,1.73
2023-03-14T21:22:05.238Z,2.25
2023-03-14T21:24:34.467Z,1.80
2023-03-14T21:27:01.187Z,1.80
2023-03-14T21:29:27.866Z,2.05
2023-03-14T21:31:54.568Z,1.88
2023-03-14T21:34:25.192Z,2.15
2023-03-14T21:36:52.221Z,2.13
2023-03-14T21:39:18.746Z,2.53
2023-03-14T21:41:45.902Z,2.83
2023-03-14T21:44:16.153Z,2.47
2023-03-14T21:46:45.927Z,2.58
2023-03-14T21:49:14.075Z,2.77
2023-03-14T21:51:41.355Z,2.65
2023-03-14T21:54:10.412Z,3.58
2023-03-14T21:56:37.938Z,3.20
2023-03-14T21:59:05.007Z,3.50
2023-03-14T22:01:32.562Z,3.70
2023-03-14T22:04:00.151Z,4.07
2023-03-14T22:06:27.985Z,3.85
2023-03-14T22:08:57.318Z,3.97
2023-03-14T22:11:25.069Z,4.38
2023-03-14T22:13:51.854Z,3.97
2023-03-14T22:16:21.484Z,4.75
2023-03-14T22:18:48.036Z,4.65
2023-03-14T22:21:14.634Z,4.47
2023-03-14T22:23:41.289Z,4.70
2023-03-14T22:26:07.978Z,4.87
2023-03-14T22:28:34.620Z,5.88
2023-03-14T22:31:03.342Z,5.35
2023-03-14T22:33:31.386Z,5.65
2023-03-14T22:35:58.196Z,5.63
2023-03-14T22:38:25.170Z,5.00
2023-03-14T22:40:51.913Z,6.30
2023-03-14T22:43:18.648Z,5.57
2023-03-14T22:45:45.856Z,4.78
2023-03-14T22:48:12.723Z,5.63
2023-03-14T22:50:40.304Z,4.07
2023-03-14T22:53:07.017Z,4.95
2023-03-14T22:55:33.809Z,5.18
2023-03-14T22:58:01.050Z,4.28
2023-03-14T23:00:29.351Z,4.95
2023-03-14T23:02:55.950Z,4.80
2023-03-14T23:05:23.273Z,4.43
2023-03-14T23:07:49.834Z,3.90
2023-03-14T23:10:18.147Z,3.83
2023-03-14T23:12:48.158Z,4.38
2023-03-14T23:15:18.482Z,3.47
2023-03-14T23:17:45.254Z,3.80
2023-03-14T23:20:12.925Z,3.67
2023-03-14T23:22:39.534Z,4.10
2023-03-14T23:25:06.732Z,4.32
2023-03-14T23:27:33.449Z,3.50
2023-03-14T23:30:00.220Z,3.58
2023-03-14T23:32:27.287Z,4.30
2023-03-14T23:34:54.042Z,3.92
2023-03-14T23:37:23.488Z,3.60
2023-03-14T23:39:50.710Z,3.23
2023-03-14T23:42:17.436Z,3.55
2023-03-14T23:44:44.117Z,3.70
2023-03-14T23:47:10.761Z,3.10
2023-03-14T23:49:37.301Z,3.85
2023-03-14T23:52:04.131Z,3.40
2023-03-14T23:54:30.687Z,2.60
2023-03-14T23:56:57.261Z,2.75
2023-03-14T23:59:23.996Z,2.58
